Time;durP1;ratioP1;P1;durP2;ratioP2;P2;SDS_P1;SDS_P2;PMS_P1;PMS_P2;Temp;Humidity;BMP_temperature;BMP_pressure;BME280_temperature;BME280_humidity;BME280_pressure;Samples;Min_cycle;Max_cycle;Signal;HPM_P1;HPM_P2
2023/05/18 00:02:05;;;;;;;26.30;14.50;;;;;;;-141.97;100.00;47886.22;4978887;28;20617;-84
2023/05/18 00:04:33;;;;;;;25.03;14.00;;;;;;;-141.97;100.00;47855.44;4978716;28;20187;-84
2023/05/18 00:07:02;;;;;;;26.27;15.23;;;;;;;-141.97;100.00;47880.44;4961029;28;20212;-84
2023/05/18 00:09:29;;;;;;;29.93;15.77;;;;;;;-141.97;100.00;47842.00;4960707;28;20183;-83
2023/05/18 00:11:56;;;;;;;29.53;16.10;;;;;;;-141.97;100.00;48007.31;4961537;28;20175;-84
2023/05/18 00:14:22;;;;;;;29.33;15.87;;;;;;;-141.97;100.00;48009.22;4976780;28;20173;-84
2023/05/18 00:16:47;;;;;;;28.70;15.73;;;;;;;-141.97;100.00;47851.59;4978499;28;20237;-83
2023/05/18 00:19:14;;;;;;;27.30;15.67;;;;;;;-141.97;100.00;47842.00;4977838;28;20200;-84
2023/05/18 00:21:47;;;;;;;28.03;15.43;;;;;;;-141.97;100.00;47836.22;4977986;28;20168;-84
2023/05/18 00:24:14;;;;;;;26.80;15.87;;;;;;;-141.97;100.00;47847.75;4977398;28;20164;-84
2023/05/18 00:26:41;;;;;;;29.43;15.70;;;;;;;-141.97;100.00;47813.16;4978116;28;20207;-84
2023/05/18 00:29:07;;;;;;;25.27;15.40;;;;;;;-141.97;100.00;47811.25;4960183;28;20334;-84
2023/05/18 00:31:35;;;;;;;26.30;15.30;;;;;;;-141.97;100.00;47851.59;4977441;28;20160;-84
2023/05/18 00:34:04;;;;;;;28.07;15.13;;;;;;;-141.97;100.00;47874.69;4977698;28;20523;-84
2023/05/18 00:36:30;;;;;;;27.67;15.67;;;;;;;-141.97;100.00;47878.53;4976625;28;20179;-84
2023/05/18 00:38:57;;;;;;;32.70;16.87;;;;;;;-141.97;100.00;47868.91;4975403;28;20208;-84
2023/05/18 00:41:23;;;;;;;33.77;17.43;;;;;;;-141.97;100.00;47872.75;4975967;28;20196;-84
2023/05/18 00:43:49;;;;;;;30.90;16.63;;;;;;;-141.97;100.00;47886.22;4977121;28;20164;-84
2023/05/18 00:46:15;;;;;;;35.07;17.70;;;;;;;-141.97;100.00;47934.25;4977886;28;20235;-83
2023/05/18 00:48:40;;;;;;;35.37;18.33;;;;;;;-141.97;100.00;47818.94;4978303;28;20168;-84
2023/05/18 00:51:06;;;;;;;33.57;18.27;;;;;;;-141.97;100.00;47849.69;4976300;28;20179;-83
2023/05/18 00:53:32;;;;;;;35.53;18.30;;;;;;;-141.97;100.00;47801.63;4976463;28;20633;-84
2023/05/18 00:55:58;;;;;;;38.17;18.80;;;;;;;-141.97;100.00;47830.47;4976764;28;20196;-83
2023/05/18 00:58:25;;;;;;;34.57;18.10;;;;;;;-141.97;100.00;47872.75;4976028;28;20356;-84
2023/05/18 01:00:51;;;;;;;38.33;18.93;;;;;;;-141.97;100.00;47868.91;4977156;28;20172;-84
2023/05/18 01:03:20;;;;;;;41.63;19.70;;;;;;;-141.97;100.00;47842.00;4978437;28;20202;-83
2023/05/18 01:05:48;;;;;;;43.23;21.87;;;;;;;-141.97;100.00;47865.06;4979894;28;20175;-84
2023/05/18 01:08:15;;;;;;;50.70;22.03;;;;;;;-141.97;100.00;47968.88;4979711;28;20701;-84
2023/05/18 01:10:44;;;;;;;55.77;23.10;;;;;;;-141.97;100.00;47863.13;4979046;28;20180;-83
2023/05/18 01:13:20;;;;;;;108.90;25.80;;;;;;;-141.97;100.00;47870.81;4961377;28;20199;-83
2023/05/18 01:15:51;;;;;;;135.20;27.17;;;;;;;-141.97;100.00;47842.00;4960974;28;20569;-84
2023/05/18 01:18:27;;;;;;;154.20;27.40;;;;;;;-141.97;100.00;47865.06;4977442;28;20258;-84
2023/05/18 01:21:09;;;;;;;251.37;28.93;;;;;;;-141.97;100.00;47870.81;4977768;28;20492;-84
2023/05/18 01:23:40;;;;;;;205.30;27.60;;;;;;;-141.97;100.00;47849.69;4978658;28;20573;-83
2023/05/18 01:26:23;;;;;;;240.27;29.80;;;;;;;-141.97;100.00;47884.28;4977675;28;20624;-84
2023/05/18 01:28:50;;;;;;;139.57;28.90;;;;;;;-141.97;100.00;47842.00;4977545;28;20165;-84
2023/05/18 01:31:16;;;;;;;175.37;28.23;;;;;;;-141.97;100.00;47845.84;4978381;28;20207;-84
2023/05/18 01:33:43;;;;;;;161.67;28.77;;;;;;;-141.97;100.00;47811.25;4977787;28;20168;-84
2023/05/18 01:36:09;;;;;;;157.50;28.40;;;;;;;-141.97;100.00;47857.38;4979411;28;20179;-84
2023/05/18 01:38:35;;;;;;;154.57;27.50;;;;;;;-141.97;100.00;47776.63;4985768;28;20231;-84
2023/05/18 01:41:22;;;;;;;232.07;28.83;;;;;;;-141.97;100.00;47874.69;4978501;28;20179;-84
2023/05/18 01:44:16;;;;;;;233.10;29.83;;;;;;;-141.97;100.00;47884.28;4975884;28;20176;-84
2023/05/18 01:47:00;;;;;;;181.70;29.37;;;;;;;-141.97;100.00;47853.53;4976296;28;20219;-83
2023/05/18 01:49:50;;;;;;;217.40;30.60;;;;;;;-141.97;100.00;47895.81;4980711;28;20699;-84
2023/05/18 01:52:20;;;;;;;243.17;29.17;;;;;;;-141.97;100.00;47853.53;4980125;28;20235;-84
2023/05/18 01:54:51;;;;;;;176.93;26.63;;;;;;;-141.97;100.00;47920.81;4980500;28;20194;-82
2023/05/18 01:57:19;;;;;;;170.90;28.40;;;;;;;-141.97;100.00;47868.91;4977738;28;20774;-84
2023/05/18 01:59:45;;;;;;;153.53;26.70;;;;;;;-141.97;100.00;47836.22;4978350;28;20204;-83
2023/05/18 02:02:10;;;;;;;117.93;26.10;;;;;;;-141.97;100.00;47857.38;4978879;28;20238;-83
2023/05/18 02:04:36;;;;;;;142.67;23.10;;;;;;;-141.97;100.00;47855.44;4978057;28;20238;-83
2023/05/18 02:07:02;;;;;;;116.67;23.77;;;;;;;-141.97;100.00;47870.81;4979138;28;20179;-83
2023/05/18 02:09:27;;;;;;;108.73;23.00;;;;;;;-141.97;100.00;47843.91;4979651;28;20603;-83
2023/05/18 02:11:53;;;;;;;83.67;22.67;;;;;;;-141.97;100.00;47893.91;4979730;28;20175;-84
2023/05/18 02:14:18;;;;;;;58.07;22.30;;;;;;;-141.97;100.00;47980.41;4978507;28;20186;-84
2023/05/18 02:16:51;;;;;;;63.80;22.30;;;;;;;-141.97;100.00;47861.22;4979865;28;20168;-84
2023/05/18 02:19:18;;;;;;;56.23;22.43;;;;;;;-141.97;100.00;47901.59;4978464;28;20227;-84
2023/05/18 02:21:44;;;;;;;50.73;22.30;;;;;;;-141.97;100.00;47845.84;4978793;28;20640;-84
2023/05/18 02:24:11;;;;;;;50.23;21.20;;;;;;;-141.97;100.00;47855.44;4978435;28;20175;-84
2023/05/18 02:26:36;;;;;;;57.83;21.27;;;;;;;-141.97;100.00;47859.28;4978924;28;20178;-84
2023/05/18 02:29:05;;;;;;;46.73;21.17;;;;;;;-141.97;100.00;47872.75;4978995;28;20168;-84
2023/05/18 02:31:30;;;;;;;49.77;22.27;;;;;;;-141.97;100.00;47876.59;4961349;28;20267;-84
2023/05/18 02:33:56;;;;;;;53.60;22.60;;;;;;;-141.97;100.00;47826.63;4979076;28;20195;-84
2023/05/18 02:36:22;;;;;;;53.67;22.40;;;;;;;-141.97;100.00;47836.22;4979032;28;20160;-84
2023/05/18 02:38:47;;;;;;;51.83;22.43;;;;;;;-141.97;100.00;47838.16;4979974;28;20196;-84
2023/05/18 02:41:13;;;;;;;52.33;21.93;;;;;;;-141.97;100.00;47963.09;4979688;28;20220;-84
2023/05/18 02:43:39;;;;;;;48.57;22.10;;;;;;;-141.97;100.00;47897.75;4978049;28;20172;-84
2023/05/18 02:46:04;;;;;;;47.67;21.20;;;;;;;-141.97;100.00;47959.25;4978700;28;20644;-84
2023/05/18 02:48:30;;;;;;;47.90;21.77;;;;;;;-141.97;100.00;47895.81;4977151;28;20183;-83
2023/05/18 02:50:55;;;;;;;45.97;21.03;;;;;;;-141.97;100.00;47807.41;4978468;28;20187;-83
2023/05/18 02:53:21;;;;;;;49.93;21.13;;;;;;;-141.97;100.00;47838.16;4977815;28;20175;-83
2023/05/18 02:55:47;;;;;;;48.00;20.87;;;;;;;-141.97;100.00;47857.38;4977609;28;20629;-84
2023/05/18 02:58:14;;;;;;;52.87;21.40;;;;;;;-141.97;100.00;47884.28;4976966;28;20235;-84
2023/05/18 03:00:40;;;;;;;49.67;21.77;;;;;;;-141.97;100.00;47861.22;4978707;28;20231;-84
2023/05/18 03:03:05;;;;;;;50.90;20.90;;;;;;;-141.97;100.00;47872.75;4977952;28;20235;-84
2023/05/18 03:05:31;;;;;;;53.73;22.03;;;;;;;-141.97;100.00;47886.22;4977587;28;20574;-84
2023/05/18 03:07:57;;;;;;;48.20;21.33;;;;;;;-141.97;100.00;47888.13;4977865;28;20172;-84
2023/05/18 03:10:22;;;;;;;52.27;22.40;;;;;;;-141.97;100.00;47865.06;4977022;28;20271;-84
2023/05/18 03:12:47;;;;;;;50.67;21.60;;;;;;;-141.97;100.00;47849.69;4979151;28;20205;-84
2023/05/18 03:15:15;;;;;;;49.03;22.17;;;;;;;-141.97;100.00;47857.38;4976686;28;20227;-83
2023/05/18 03:17:43;;;;;;;50.80;21.90;;;;;;;-141.97;100.00;47882.38;4977646;28;20212;-83
2023/05/18 03:20:13;;;;;;;54.27;22.73;;;;;;;-141.97;100.00;47880.44;4978765;28;20254;-83
2023/05/18 03:22:39;;;;;;;47.30;21.60;;;;;;;-141.97;100.00;47857.38;4978589;28;20172;-83
2023/05/18 03:25:05;;;;;;;47.23;21.60;;;;;;;-141.97;100.00;47872.75;4978536;28;20176;-84
2023/05/18 03:27:30;;;;;;;46.93;20.93;;;;;;;-141.97;100.00;47936.19;4978949;28;20184;-84
2023/05/18 03:29:56;;;;;;;46.43;21.07;;;;;;;-141.97;100.00;47872.75;4978055;28;20172;-84
2023/05/18 03:32:23;;;;;;;46.73;22.43;;;;;;;-141.97;100.00;47834.31;4978061;28;20196;-83
2023/05/18 03:34:50;;;;;;;50.33;22.57;;;;;;;-141.97;100.00;47853.53;4977468;28;20224;-83
2023/05/18 03:37:16;;;;;;;48.27;22.20;;;;;;;-141.97;100.00;47824.69;4976986;28;20168;-83
2023/05/18 03:39:42;;;;;;;48.27;21.53;;;;;;;-141.97;100.00;47822.78;4978276;28;20684;-83
2023/05/18 03:42:07;;;;;;;47.63;21.93;;;;;;;-141.97;100.00;48026.53;4978818;28;20179;-83
2023/05/18 03:44:33;;;;;;;52.77;23.50;;;;;;;-141.97;100.00;47907.34;4977433;28;20176;-84
2023/05/18 03:46:58;;;;;;;52.57;24.03;;;;;;;-141.97;100.00;47845.84;4977482;28;20276;-83
2023/05/18 03:49:23;;;;;;;52.57;23.73;;;;;;;-141.97;100.00;47855.44;4977423;28;20176;-84
2023/05/18 03:51:49;;;;;;;56.67;24.67;;;;;;;-141.97;100.00;47853.53;4977375;28;20585;-83
2023/05/18 03:54:14;;;;;;;56.30;24.50;;;;;;;-141.97;100.00;47834.31;4977475;28;20234;-83
2023/05/18 03:56:40;;;;;;;54.77;23.93;;;;;;;-141.97;100.00;47793.94;4977056;28;20179;-83
2023/05/18 03:59:06;;;;;;;57.43;26.10;;;;;;;-141.97;100.00;47861.22;4976647;28;20238;-83
2023/05/18 04:01:32;;;;;;;63.57;25.77;;;;;;;-141.97;100.00;47872.75;4976959;28;20192;-84
2023/05/18 04:03:58;;;;;;;57.67;25.20;;;;;;;-141.97;100.00;47965.03;4977584;28;20645;-84
2023/05/18 04:06:25;;;;;;;61.03;25.00;;;;;;;-141.97;100.00;47859.28;4977237;28;20178;-84
2023/05/18 04:08:51;;;;;;;53.87;25.53;;;;;;;-141.97;100.00;47859.28;4976228;28;20160;-84
2023/05/18 04:11:17;;;;;;;55.13;25.33;;;;;;;-141.97;100.00;47853.53;4975741;28;20183;-84
2023/05/18 04:13:42;;;;;;;58.00;25.13;;;;;;;-141.97;100.00;47863.13;4976846;28;20172;-84
2023/05/18 04:16:12;;;;;;;52.47;25.17;;;;;;;-141.97;100.00;47868.91;4977717;28;20172;-85
2023/05/18 04:18:40;;;;;;;57.70;25.00;;;;;;;-141.97;100.00;47863.13;4960285;28;20208;-84
2023/05/18 04:21:06;;;;;;;51.00;23.63;;;;;;;-141.97;100.00;47732.44;4978047;28;20226;-84
2023/05/18 04:23:37;;;;;;;50.67;23.57;;;;;;;-141.97;100.00;47930.41;4977217;28;20169;-84
2023/05/18 04:26:04;;;;;;;48.03;22.53;;;;;;;-141.97;100.00;47884.28;4977841;28;20188;-83
2023/05/18 04:28:30;;;;;;;44.30;22.33;;;;;;;-141.97;100.00;47822.78;4976926;28;20176;-85
2023/05/18 04:30:55;;;;;;;48.07;23.20;;;;;;;-141.97;100.00;47797.78;4977227;28;20168;-84
2023/05/18 04:33:21;;;;;;;44.93;22.80;;;;;;;-141.97;100.00;47995.78;4979471;28;20172;-83
2023/05/18 04:35:47;;;;;;;48.63;23.80;;;;;;;-141.97;100.00;47868.91;4980977;28;20728;-84
2023/05/18 04:38:13;;;;;;;41.97;20.67;;;;;;;-141.97;100.00;47838.16;4982986;28;20219;-84
2023/05/18 04:40:41;;;;;;;44.10;19.40;;;;;;;-141.97;100.00;47845.84;4988891;28;20239;-84
2023/05/18 04:43:07;;;;;;;34.43;18.27;;;;;;;-141.97;100.00;47905.44;4977967;28;20164;-84
2023/05/18 04:45:32;;;;;;;35.70;19.70;;;;;;;-141.97;100.00;47872.75;4975329;28;20195;-82
2023/05/18 04:47:58;;;;;;;36.80;18.97;;;;;;;-141.97;100.00;47853.53;4974357;28;20172;-82
2023/05/18 04:50:23;;;;;;;39.13;21.13;;;;;;;-141.97;100.00;47855.44;4974021;28;20172;-81
2023/05/18 04:52:50;;;;;;;50.17;26.43;;;;;;;-141.97;100.00;47851.59;4974021;28;20195;-82
2023/05/18 04:55:21;;;;;;;38.07;21.00;;;;;;;-141.97;100.00;47853.53;4974063;28;20549;-82
2023/05/18 04:57:52;;;;;;;40.03;22.40;;;;;;;-141.97;100.00;47870.81;4973414;28;20255;-80
2023/05/18 05:00:19;;;;;;;39.13;21.43;;;;;;;-141.97;100.00;47861.22;4973635;28;20319;-82
2023/05/18 05:02:44;;;;;;;34.03;21.63;;;;;;;-141.97;100.00;47843.91;4974078;28;20171;-82
2023/05/18 05:05:10;;;;;;;34.47;20.30;;;;;;;-141.97;100.00;47920.81;4977025;28;20168;-81
2023/05/18 05:07:35;;;;;;;37.70;19.90;;;;;;;-141.97;100.00;47866.97;4973733;28;20172;-81
2023/05/18 05:10:01;;;;;;;34.40;18.80;;;;;;;-141.97;100.00;47886.22;4973675;28;20174;-81
2023/05/18 05:12:26;;;;;;;33.80;18.20;;;;;;;-141.97;100.00;47811.25;4973328;28;20637;-81
2023/05/18 05:14:52;;;;;;;33.93;18.50;;;;;;;-141.97;100.00;47859.28;4973942;28;20176;-82
2023/05/18 05:17:17;;;;;;;34.17;19.63;;;;;;;-141.97;100.00;47863.13;4974257;28;20165;-82
2023/05/18 05:19:42;;;;;;;40.67;20.00;;;;;;;-141.97;100.00;47849.69;4973275;28;20274;-81
2023/05/18 05:22:08;;;;;;;38.93;19.33;;;;;;;-141.97;100.00;47865.06;4973391;28;20180;-82
2023/05/18 05:24:33;;;;;;;44.93;22.93;;;;;;;-141.97;100.00;47822.78;4974194;28;20180;-82
2023/05/18 05:26:59;;;;;;;40.30;21.10;;;;;;;-141.97;100.00;47878.53;4974042;28;20168;-83
2023/05/18 05:29:25;;;;;;;40.67;21.60;;;;;;;-141.97;100.00;47853.53;4972755;28;20194;-81
2023/05/18 05:31:51;;;;;;;42.87;22.10;;;;;;;-141.97;100.00;47836.22;4973193;28;20168;-82
2023/05/18 05:34:16;;;;;;;50.00;24.87;;;;;;;-141.97;100.00;47853.53;4973085;28;20259;-81
2023/05/18 05:36:41;;;;;;;46.57;24.90;;;;;;;-141.97;100.00;47886.22;4973322;28;20179;-82
2023/05/18 05:39:07;;;;;;;48.10;23.93;;;;;;;-141.97;100.00;47857.38;4955914;28;20199;-82
2023/05/18 05:41:32;;;;;;;45.07;22.20;;;;;;;-141.97;100.00;47870.81;4974410;28;20384;-81
2023/05/18 05:43:58;;;;;;;41.37;21.33;;;;;;;-141.97;100.00;47842.00;4973208;28;20180;-82
2023/05/18 05:46:23;;;;;;;36.93;19.53;;;;;;;-141.97;100.00;47865.06;4973631;28;20230;-81
2023/05/18 05:48:49;;;;;;;36.17;19.33;;;;;;;-141.97;100.00;47845.84;4973176;28;20176;-82
2023/05/18 05:51:15;;;;;;;37.63;20.53;;;;;;;-141.97;100.00;47851.59;4973641;28;20211;-82
2023/05/18 05:53:42;;;;;;;34.43;20.67;;;;;;;-141.97;100.00;47820.84;4973607;28;20175;-82
2023/05/18 05:56:07;;;;;;;38.77;21.50;;;;;;;-141.97;100.00;47878.53;4973170;28;20172;-80
2023/05/18 05:58:33;;;;;;;38.10;21.77;;;;;;;-141.97;100.00;47855.44;4949201;28;20289;-85
2023/05/18 06:00:58;;;;;;;33.60;20.77;;;;;;;-141.97;100.00;47870.81;4986110;28;20183;-85
2023/05/18 06:03:24;;;;;;;34.87;20.90;;;;;;;-141.97;100.00;47872.75;4979572;28;20176;-84
2023/05/18 06:05:49;;;;;;;35.17;20.70;;;;;;;-141.97;100.00;47884.28;4978810;28;20180;-84
2023/05/18 06:08:16;;;;;;;38.90;20.80;;;;;;;-141.97;100.00;48038.06;4960281;28;20175;-83
2023/05/18 06:10:41;;;;;;;34.77;20.10;;;;;;;-141.97;100.00;47799.72;4963834;28;20270;-85
2023/05/18 06:13:07;;;;;;;44.77;24.13;;;;;;;-141.97;100.00;47843.91;4981659;28;20180;-83
2023/05/18 06:15:32;;;;;;;44.43;24.63;;;;;;;-141.97;100.00;47859.28;4997395;28;20180;-83
2023/05/18 06:17:58;;;;;;;39.93;23.23;;;;;;;-141.97;100.00;47649.78;4979053;28;20187;-82
2023/05/18 06:20:25;;;;;;;35.03;19.93;;;;;;;-141.97;100.00;47865.06;4962530;28;20235;-83
2023/05/18 06:22:50;;;;;;;33.67;19.30;;;;;;;-141.97;100.00;47863.13;4998472;28;20684;-84
2023/05/18 06:25:17;;;;;;;32.50;19.07;;;;;;;-141.97;100.00;47988.09;4995742;28;20223;-84
2023/05/18 06:27:43;;;;;;;28.10;17.83;;;;;;;-141.97;100.00;47980.41;4996189;28;20218;-84
2023/05/18 06:30:09;;;;;;;30.07;17.70;;;;;;;-141.97;100.00;47811.25;4978100;28;20677;-84
2023/05/18 06:32:36;;;;;;;27.93;17.97;;;;;;;-141.97;100.00;47857.38;4999462;28;20167;-83
2023/05/18 06:35:02;;;;;;;30.43;18.50;;;;;;;-141.97;100.00;47782.41;5005367;28;20190;-83
2023/05/18 06:37:28;;;;;;;32.90;19.20;;;;;;;-141.97;100.00;47878.53;4986609;28;20558;-83
2023/05/18 06:39:54;;;;;;;30.33;17.87;;;;;;;-141.97;100.00;47768.94;5001462;28;20203;-83
2023/05/18 06:42:19;;;;;;;33.43;18.80;;;;;;;-141.97;100.00;47776.63;4999186;28;20203;-83
2023/05/18 06:44:45;;;;;;;31.27;19.70;;;;;;;-141.97;100.00;47842.00;4998018;28;20198;-84
2023/05/18 06:47:10;;;;;;;34.47;20.20;;;;;;;-141.97;100.00;47742.03;5001550;28;20182;-84
2023/05/18 06:49:35;;;;;;;36.77;21.80;;;;;;;-141.97;100.00;47993.84;4983345;28;20207;-83
2023/05/18 06:52:02;;;;;;;34.83;20.97;;;;;;;-141.97;100.00;47838.16;4999595;28;20513;-83
2023/05/18 06:54:28;;;;;;;29.20;18.63;;;;;;;-141.97;100.00;47826.63;4988378;28;20187;-83
2023/05/18 06:56:54;;;;;;;32.37;20.33;;;;;;;-141.97;100.00;47842.00;4960064;28;20183;-83
2023/05/18 06:59:19;;;;;;;32.27;20.37;;;;;;;-141.97;100.00;47834.31;4938063;29;20705;-83
2023/05/18 07:01:45;;;;;;;30.63;18.97;;;;;;;-141.97;100.00;47836.22;4961941;28;20636;-83
2023/05/18 07:04:10;;;;;;;31.47;19.80;;;;;;;-141.97;100.00;47811.25;4960686;29;20164;-84
2023/05/18 07:06:36;;;;;;;30.07;19.17;;;;;;;-141.97;100.00;47870.81;4961082;29;20251;-83
2023/05/18 07:09:02;;;;;;;30.13;19.53;;;;;;;-141.97;100.00;47767.03;4941945;29;20185;-83
2023/05/18 07:11:28;;;;;;;29.17;19.00;;;;;;;-141.97;100.00;47795.88;4943405;29;20193;-83
2023/05/18 07:13:53;;;;;;;30.37;18.57;;;;;;;-141.97;100.00;47826.63;4927047;29;20214;-84
2023/05/18 07:16:18;;;;;;;35.90;20.67;;;;;;;-141.97;100.00;47868.91;4926621;29;20201;-84
2023/05/18 07:18:44;;;;;;;36.67;20.73;;;;;;;-141.97;100.00;47863.13;4947221;29;20208;-84
2023/05/18 07:21:10;;;;;;;43.87;22.60;;;;;;;-141.97;100.00;47653.63;4961826;29;20638;-84
2023/05/18 07:23:35;;;;;;;45.33;24.60;;;;;;;-141.97;100.00;47634.41;4964713;29;20169;-84
2023/05/18 07:26:01;;;;;;;45.93;24.13;;;;;;;-141.97;100.00;47842.00;4959957;29;20671;-83
2023/05/18 07:28:26;;;;;;;47.53;24.07;;;;;;;-141.97;100.00;47815.09;4943879;29;20196;-82
2023/05/18 07:30:52;;;;;;;49.07;24.40;;;;;;;-141.97;100.00;47726.66;4958212;29;20180;-84
2023/05/18 07:33:17;;;;;;;41.87;22.03;;;;;;;-141.97;100.00;47638.25;4961795;29;20200;-84
2023/05/18 07:35:42;;;;;;;34.50;19.63;;;;;;;-141.97;100.00;47838.16;4958937;29;20676;-85
2023/05/18 07:38:08;;;;;;;31.13;16.63;;;;;;;-141.97;100.00;47842.00;4959476;29;20175;-83
2023/05/18 07:40:33;;;;;;;27.00;15.27;;;;;;;-141.97;100.00;47853.53;4961981;29;20232;-83
2023/05/18 07:42:59;;;;;;;23.87;13.63;;;;;;;-141.97;100.00;47845.84;4975579;28;20205;-84
2023/05/18 07:45:24;;;;;;;26.57;13.77;;;;;;;-141.97;100.00;47834.31;4967240;28;20216;-83
2023/05/18 07:47:49;;;;;;;21.40;12.33;;;;;;;-141.97;100.00;47780.47;4957635;29;20164;-82
2023/05/18 07:50:15;;;;;;;20.57;12.17;;;;;;;-141.97;100.00;47818.94;4959968;28;20836;-83
2023/05/18 07:52:41;;;;;;;26.17;15.40;;;;;;;-141.97;100.00;47870.81;4955598;29;20196;-84
2023/05/18 07:55:16;;;;;;;23.50;13.57;;;;;;;-141.97;100.00;47847.75;4957071;29;20176;-83
2023/05/18 07:57:41;;;;;;;26.60;16.63;;;;;;;-141.97;100.00;47903.50;4963340;28;20215;-82
2023/05/18 08:00:08;;;;;;;21.97;11.73;;;;;;;-141.97;100.00;47790.09;4967278;28;20242;-82
2023/05/18 08:02:34;;;;;;;23.53;13.40;;;;;;;-141.97;100.00;47961.19;4975994;28;20239;-84
2023/05/18 08:05:00;;;;;;;20.57;13.30;;;;;;;-141.97;100.00;47736.28;4990883;28;20212;-83
2023/05/18 08:07:28;;;;;;;19.73;12.33;;;;;;;-141.97;100.00;47834.31;4975105;28;20571;-84
2023/05/18 08:09:54;;;;;;;20.67;11.97;;;;;;;-141.97;100.00;47970.78;4977614;28;20172;-83
2023/05/18 08:12:20;;;;;;;19.90;11.37;;;;;;;-141.97;100.00;47836.22;4976656;28;20180;-84
2023/05/18 08:14:45;;;;;;;27.53;17.80;;;;;;;-141.97;100.00;47828.53;4977400;28;20192;-83
2023/05/18 08:17:10;;;;;;;17.47;10.37;;;;;;;-141.97;100.00;47842.00;4977147;28;20173;-83
2023/05/18 08:19:36;;;;;;;26.17;13.37;;;;;;;-141.97;100.00;47834.31;4975761;28;20227;-84
2023/05/18 08:22:02;;;;;;;17.93;11.57;;;;;;;-141.97;100.00;47801.63;4976388;28;20263;-83
2023/05/18 08:24:27;;;;;;;16.40;9.60;;;;;;;-141.97;100.00;47849.69;4976695;28;20176;-83
2023/05/18 08:26:53;;;;;;;17.20;9.20;;;;;;;-141.97;100.00;47849.69;4985331;28;20180;-83
2023/05/18 08:29:18;;;;;;;20.47;10.90;;;;;;;-141.97;100.00;47836.22;4980774;28;20180;-82
2023/05/18 08:31:43;;;;;;;15.20;10.27;;;;;;;-141.97;100.00;47801.63;4985882;28;20186;-82
2023/05/18 08:34:09;;;;;;;14.13;9.73;;;;;;;-141.97;100.00;47843.91;4995198;28;20174;-83
2023/05/18 08:36:35;;;;;;;15.67;10.13;;;;;;;-141.97;100.00;47838.16;4976620;28;20186;-82
2023/05/18 08:39:01;;;;;;;14.30;8.17;;;;;;;-141.97;100.00;47980.41;4976246;28;20204;-82
2023/05/18 08:42:02;;;;;;;13.00;8.40;;;;;;;-141.97;100.00;47838.16;4961573;28;20194;-83
2023/05/18 08:44:43;;;;;;;13.87;8.80;;;;;;;-141.97;100.00;47803.56;4916397;29;20194;-82
2023/05/18 08:47:10;;;;;;;13.80;9.13;;;;;;;-141.97;100.00;47961.19;4917026;29;20234;-83
2023/05/18 08:49:35;;;;;;;14.10;8.57;;;;;;;-141.97;100.00;47888.13;4917402;29;20694;-83
2023/05/18 08:52:03;;;;;;;17.27;10.20;;;;;;;-141.97;100.00;47795.88;4924113;29;20174;-82
2023/05/18 08:54:29;;;;;;;13.97;7.87;;;;;;;-141.97;100.00;47822.78;4919103;29;20289;-83
2023/05/18 08:56:55;;;;;;;14.47;8.83;;;;;;;-141.97;100.00;47811.25;4895754;29;20589;-82
2023/05/18 08:59:24;;;;;;;15.93;9.33;;;;;;;-141.97;100.00;47849.69;4887853;29;20268;-82
2023/05/18 09:01:50;;;;;;;16.03;9.27;;;;;;;-141.97;100.00;47828.53;4922481;29;20201;-83
2023/05/18 09:04:18;;;;;;;21.60;9.53;;;;;;;-141.97;100.00;47749.72;4934869;29;20173;-83
2023/05/18 09:06:45;;;;;;;15.93;8.87;;;;;;;-141.97;100.00;47792.03;4935292;29;20181;-83
2023/05/18 09:09:11;;;;;;;17.33;9.40;;;;;;;-141.97;100.00;47803.56;4935555;29;20192;-83
2023/05/18 09:11:38;;;;;;;13.33;8.00;;;;;;;-141.97;100.00;47995.78;4934351;29;20265;-83
2023/05/18 09:14:03;;;;;;;14.33;8.20;;;;;;;-141.97;100.00;47801.63;4933475;29;20189;-82
2023/05/18 09:16:29;;;;;;;14.07;8.53;;;;;;;-141.97;100.00;47751.66;4928529;29;20193;-82
2023/05/18 09:18:54;;;;;;;12.47;7.20;;;;;;;-141.97;100.00;47782.41;4913308;29;20826;-83
2023/05/18 09:21:20;;;;;;;11.23;6.90;;;;;;;-141.97;100.00;47799.72;4952251;28;20269;-84
2023/05/18 09:23:46;;;;;;;14.90;7.97;;;;;;;-141.97;100.00;47776.63;4993299;28;20167;-84
2023/05/18 09:26:12;;;;;;;9.53;6.33;;;;;;;-141.97;100.00;47811.25;4975256;28;20274;-84
2023/05/18 09:28:40;;;;;;;12.17;6.30;;;;;;;-141.97;100.00;47803.56;4993146;28;20675;-83
2023/05/18 09:31:07;;;;;;;10.77;6.83;;;;;;;-141.97;100.00;47776.63;4990903;28;20261;-83
2023/05/18 09:33:37;;;;;;;12.50;6.93;;;;;;;-141.97;100.00;47788.19;4992841;28;20341;-82
2023/05/18 09:36:05;;;;;;;9.47;5.70;;;;;;;-141.97;100.00;47792.03;4992576;28;20541;-82
2023/05/18 09:38:35;;;;;;;8.60;5.57;;;;;;;-141.97;100.00;47788.19;4975094;28;20199;-82
2023/05/18 09:41:01;;;;;;;10.27;5.70;;;;;;;-141.97;100.00;47711.28;4992293;28;20193;-82
2023/05/18 09:43:26;;;;;;;7.67;5.07;;;;;;;-141.97;100.00;47886.22;4985099;28;20606;-83
2023/05/18 09:45:52;;;;;;;10.30;5.60;;;;;;;-141.97;100.00;47753.56;4972765;28;20312;-84
2023/05/18 09:48:17;;;;;;;10.37;5.97;;;;;;;-141.97;100.00;47734.34;4973115;28;20168;-83
2023/05/18 09:50:44;;;;;;;7.70;5.73;;;;;;;-141.97;100.00;47718.97;4973318;28;20173;-83
2023/05/18 09:53:10;;;;;;;10.17;5.57;;;;;;;-141.97;100.00;47809.31;4989947;28;20190;-82
2023/05/18 09:55:43;;;;;;;10.77;5.00;;;;;;;-141.97;100.00;47776.63;4973689;28;20180;-84
2023/05/18 09:58:08;;;;;;;7.30;5.30;;;;;;;-141.97;100.00;47801.63;4955426;28;20314;-81
2023/05/18 10:00:37;;;;;;;9.03;5.13;;;;;;;-141.97;100.00;47753.56;4963482;28;20318;-82
2023/05/18 10:03:02;;;;;;;6.67;4.50;;;;;;;-141.97;100.00;47753.56;4971875;28;20168;-83
2023/05/18 10:05:33;;;;;;;6.93;4.30;;;;;;;-141.97;51.19;47765.09;4977606;28;20179;-82
2023/05/18 10:08:00;;;;;;;9.63;4.47;;;;;;;-141.97;52.20;47717.06;4977864;28;20203;-83
2023/05/18 10:10:28;;;;;;;6.87;4.20;;;;;;;-141.97;51.91;47765.09;4975517;28;20176;-83
2023/05/18 10:12:56;;;;;;;6.33;4.27;;;;;;;-141.97;51.22;47697.84;4990222;28;20190;-82
2023/05/18 10:15:22;;;;;;;5.67;4.30;;;;;;;-141.97;51.54;47768.94;4996234;28;20174;-84
2023/05/18 10:17:50;;;;;;;6.47;4.70;;;;;;;-141.97;51.49;47699.75;4995524;28;20678;-84
2023/05/18 10:20:22;;;;;;;8.57;4.67;;;;;;;-141.97;51.53;47924.66;4996428;28;20397;-83
2023/05/18 10:22:49;;;;;;;7.30;4.47;;;;;;;-141.97;50.55;47753.56;4996928;28;20246;-83
2023/05/18 10:25:19;;;;;;;7.37;4.30;;;;;;;-141.97;50.92;47653.63;4995806;28;20215;-83
2023/05/18 10:27:48;;;;;;;8.67;4.27;;;;;;;-141.97;50.96;47661.31;4995675;28;20237;-83
2023/05/18 10:30:16;;;;;;;7.67;4.23;;;;;;;-141.97;52.40;47742.03;4995531;28;20254;-82
2023/05/18 10:32:42;;;;;;;6.33;4.30;;;;;;;-141.97;52.66;47749.72;4994766;28;20186;-82
2023/05/18 10:35:09;;;;;;;11.60;5.00;;;;;;;-141.97;52.97;47753.56;4995704;28;20172;-84
2023/05/18 10:37:38;;;;;;;6.87;4.83;;;;;;;-141.97;52.60;47753.56;4996344;28;20168;-82
2023/05/18 10:40:06;;;;;;;9.43;4.40;;;;;;;-141.97;51.95;47753.56;5001046;28;20207;-83
2023/05/18 10:42:32;;;;;;;7.17;4.63;;;;;;;-141.97;50.84;47747.81;5008384;28;20544;-87
2023/05/18 10:45:00;;;;;;;7.90;4.60;;;;;;;-141.97;51.65;47828.53;5018800;28;20159;-85
2023/05/18 10:47:30;;;;;;;6.20;4.40;;;;;;;-141.97;50.46;47765.09;4997714;28;20155;-85
2023/05/18 10:49:59;;;;;;;6.53;4.33;;;;;;;-141.97;51.17;47767.03;4995980;28;20187;-84
2023/05/18 10:52:30;;;;;;;7.03;4.30;;;;;;;-141.97;50.87;47717.06;4983694;28;20183;-85
2023/05/18 10:54:58;;;;;;;8.33;4.17;;;;;;;-141.97;49.92;47955.41;4980981;28;20176;-84
2023/05/18 10:57:27;;;;;;;9.17;4.60;;;;;;;-141.97;49.42;47765.09;4976204;28;20220;-84